sensor_id;sensor_type;location;lat;lon;timestamp;P1;durP1;ratioP1;P2;durP2;ratioP2
76348;SDS011;65172;46.764;15.406;2023-05-02T00:01:02;12.10;;;8.15;;
76348;SDS011;65172;46.764;15.406;2023-05-02T00:03:29;14.27;;;8.60;;
76348;SDS011;65172;46.764;15.406;2023-05-02T00:05:56;13.25;;;9.05;;
76348;SDS011;65172;46.764;15.406;2023-05-02T00:08:22;13.68;;;9.88;;
76348;SDS011;65172;46.764;15.406;2023-05-02T00:10:48;12.38;;;9.93;;
76348;SDS011;65172;46.764;15.406;2023-05-02T00:13:13;14.40;;;10.15;;
76348;SDS011;65172;46.764;15.406;2023-05-02T00:15:42;11.48;;;9.32;;
76348;SDS011;65172;46.764;15.406;2023-05-02T00:18:08;13.50;;;9.10;;
76348;SDS011;65172;46.764;15.406;2023-05-02T00:20:34;12.27;;;9.43;;
76348;SDS011;65172;46.764;15.406;2023-05-02T00:22:59;11.20;;;8.65;;
76348;SDS011;65172;46.764;15.406;2023-05-02T00:25:25;12.43;;;8.93;;
76348;SDS011;65172;46.764;15.406;2023-05-02T00:27:50;12.10;;;8.35;;
76348;SDS011;65172;46.764;15.406;2023-05-02T00:30:17;14.35;;;8.93;;
76348;SDS011;65172;46.764;15.406;2023-05-02T00:32:43;11.13;;;8.68;;
76348;SDS011;65172;46.764;15.406;2023-05-02T00:35:08;10.38;;;8.05;;
76348;SDS011;65172;46.764;15.406;2023-05-02T00:37:34;9.93;;;7.82;;
76348;SDS011;65172;46.764;15.406;2023-05-02T00:40:00;11.30;;;7.95;;
76348;SDS011;65172;46.764;15.406;2023-05-02T00:42:25;11.40;;;8.65;;
76348;SDS011;65172;46.764;15.406;2023-05-02T00:44:53;11.57;;;8.10;;
76348;SDS011;65172;46.764;15.406;2023-05-02T00:47:18;10.85;;;7.57;;
76348;SDS011;65172;46.764;15.406;2023-05-02T00:49:45;11.77;;;7.53;;
76348;SDS011;65172;46.764;15.406;2023-05-02T00:52:10;9.00;;;7.47;;
76348;SDS011;65172;46.764;15.406;2023-05-02T00:54:36;13.93;;;8.13;;
76348;SDS011;65172;46.764;15.406;2023-05-02T00:57:05;12.32;;;6.85;;
76348;SDS011;65172;46.764;15.406;2023-05-02T00:59:31;8.38;;;6.93;;
76348;SDS011;65172;46.764;15.406;2023-05-02T01:04:49;9.65;;;7.40;;
76348;SDS011;65172;46.764;15.406;2023-05-02T01:12:40;9.10;;;6.88;;
76348;SDS011;65172;46.764;15.406;2023-05-02T01:15:13;10.20;;;7.97;;
76348;SDS011;65172;46.764;15.406;2023-05-02T01:17:41;14.40;;;8.82;;
76348;SDS011;65172;46.764;15.406;2023-05-02T01:20:10;12.23;;;7.93;;
76348;SDS011;65172;46.764;15.406;2023-05-02T01:22:38;14.23;;;9.25;;
76348;SDS011;65172;46.764;15.406;2023-05-02T01:30:35;12.52;;;8.85;;
76348;SDS011;65172;46.764;15.406;2023-05-02T01:33:03;9.45;;;6.25;;
76348;SDS011;65172;46.764;15.406;2023-05-02T01:35:29;11.95;;;7.10;;
76348;SDS011;65172;46.764;15.406;2023-05-02T01:37:57;9.57;;;6.95;;
76348;SDS011;65172;46.764;15.406;2023-05-02T01:40:23;8.00;;;6.68;;
76348;SDS011;65172;46.764;15.406;2023-05-02T01:42:50;6.90;;;6.07;;
76348;SDS011;65172;46.764;15.406;2023-05-02T01:45:18;13.48;;;6.47;;
76348;SDS011;65172;46.764;15.406;2023-05-02T01:47:45;9.93;;;7.63;;
76348;SDS011;65172;46.764;15.406;2023-05-02T01:50:12;13.45;;;7.60;;
76348;SDS011;65172;46.764;15.406;2023-05-02T01:52:40;10.10;;;7.20;;
76348;SDS011;65172;46.764;15.406;2023-05-02T01:55:08;11.15;;;7.65;;
76348;SDS011;65172;46.764;15.406;2023-05-02T01:57:36;14.13;;;9.05;;
76348;SDS011;65172;46.764;15.406;2023-05-02T02:00:04;9.23;;;8.32;;
76348;SDS011;65172;46.764;15.406;2023-05-02T02:02:30;9.00;;;6.05;;
76348;SDS011;65172;46.764;15.406;2023-05-02T02:07:33;10.82;;;7.68;;
76348;SDS011;65172;46.764;15.406;2023-05-02T02:09:59;9.57;;;7.28;;
76348;SDS011;65172;46.764;15.406;2023-05-02T02:12:26;10.20;;;6.80;;
76348;SDS011;65172;46.764;15.406;2023-05-02T02:15:05;10.20;;;7.15;;
76348;SDS011;65172;46.764;15.406;2023-05-02T02:20:45;9.88;;;6.28;;
76348;SDS011;65172;46.764;15.406;2023-05-02T02:23:11;8.93;;;6.85;;
76348;SDS011;65172;46.764;15.406;2023-05-02T02:25:37;7.70;;;6.30;;
76348;SDS011;65172;46.764;15.406;2023-05-02T02:28:03;9.40;;;6.95;;
76348;SDS011;65172;46.764;15.406;2023-05-02T02:30:28;10.88;;;7.53;;
76348;SDS011;65172;46.764;15.406;2023-05-02T02:32:54;8.38;;;6.30;;
76348;SDS011;65172;46.764;15.406;2023-05-02T02:35:19;10.43;;;7.20;;
76348;SDS011;65172;46.764;15.406;2023-05-02T02:40:28;9.73;;;7.07;;
76348;SDS011;65172;46.764;15.406;2023-05-02T02:43:14;10.90;;;7.47;;
76348;SDS011;65172;46.764;15.406;2023-05-02T02:48:35;10.75;;;8.13;;
76348;SDS011;65172;46.764;15.406;2023-05-02T02:53:49;10.38;;;8.43;;
76348;SDS011;65172;46.764;15.406;2023-05-02T02:56:40;11.00;;;7.97;;
76348;SDS011;65172;46.764;15.406;2023-05-02T03:02:16;10.40;;;7.72;;
76348;SDS011;65172;46.764;15.406;2023-05-02T03:04:43;8.20;;;6.97;;
76348;SDS011;65172;46.764;15.406;2023-05-02T03:07:10;9.38;;;7.65;;
76348;SDS011;65172;46.764;15.406;2023-05-02T03:12:08;9.95;;;7.07;;
76348;SDS011;65172;46.764;15.406;2023-05-02T03:14:34;14.30;;;8.88;;
76348;SDS011;65172;46.764;15.406;2023-05-02T03:17:01;11.00;;;8.77;;
76348;SDS011;65172;46.764;15.406;2023-05-02T03:19:26;16.63;;;9.10;;
76348;SDS011;65172;46.764;15.406;2023-05-02T03:21:52;10.60;;;8.50;;
76348;SDS011;65172;46.764;15.406;2023-05-02T03:24:17;9.23;;;7.40;;
76348;SDS011;65172;46.764;15.406;2023-05-02T03:26:43;9.50;;;7.10;;
76348;SDS011;65172;46.764;15.406;2023-05-02T03:29:08;9.18;;;6.90;;
76348;SDS011;65172;46.764;15.406;2023-05-02T03:31:34;8.85;;;7.93;;
76348;SDS011;65172;46.764;15.406;2023-05-02T03:34:00;9.23;;;6.93;;
76348;SDS011;65172;46.764;15.406;2023-05-02T03:36:26;9.45;;;7.25;;
76348;SDS011;65172;46.764;15.406;2023-05-02T03:38:51;9.70;;;7.88;;
76348;SDS011;65172;46.764;15.406;2023-05-02T03:41:17;11.10;;;8.02;;
76348;SDS011;65172;46.764;15.406;2023-05-02T03:43:45;9.98;;;8.20;;
76348;SDS011;65172;46.764;15.406;2023-05-02T03:46:10;12.15;;;8.30;;
76348;SDS011;65172;46.764;15.406;2023-05-02T03:48:36;8.45;;;7.20;;
76348;SDS011;65172;46.764;15.406;2023-05-02T03:51:03;9.23;;;6.82;;
76348;SDS011;65172;46.764;15.406;2023-05-02T03:53:30;10.75;;;7.78;;
76348;SDS011;65172;46.764;15.406;2023-05-02T03:55:56;13.57;;;9.52;;
76348;SDS011;65172;46.764;15.406;2023-05-02T03:58:22;10.95;;;9.25;;
76348;SDS011;65172;46.764;15.406;2023-05-02T04:00:49;9.73;;;6.90;;
76348;SDS011;65172;46.764;15.406;2023-05-02T04:03:16;9.75;;;6.93;;
76348;SDS011;65172;46.764;15.406;2023-05-02T04:05:42;12.30;;;10.02;;
76348;SDS011;65172;46.764;15.406;2023-05-02T04:08:08;15.00;;;11.07;;
76348;SDS011;65172;46.764;15.406;2023-05-02T04:10:34;13.20;;;9.93;;
76348;SDS011;65172;46.764;15.406;2023-05-02T04:13:00;15.23;;;10.35;;
76348;SDS011;65172;46.764;15.406;2023-05-02T04:15:27;13.80;;;11.00;;
76348;SDS011;65172;46.764;15.406;2023-05-02T04:17:52;13.63;;;11.43;;
76348;SDS011;65172;46.764;15.406;2023-05-02T04:20:18;12.05;;;8.73;;
76348;SDS011;65172;46.764;15.406;2023-05-02T04:22:44;10.93;;;7.95;;
76348;SDS011;65172;46.764;15.406;2023-05-02T04:25:11;17.10;;;9.88;;
76348;SDS011;65172;46.764;15.406;2023-05-02T04:27:37;14.55;;;11.25;;
76348;SDS011;65172;46.764;15.406;2023-05-02T04:30:03;13.32;;;11.30;;
76348;SDS011;65172;46.764;15.406;2023-05-02T04:32:28;18.13;;;12.48;;
76348;SDS011;65172;46.764;15.406;2023-05-02T04:34:55;15.93;;;10.13;;
76348;SDS011;65172;46.764;15.406;2023-05-02T04:37:21;14.88;;;9.40;;
76348;SDS011;65172;46.764;15.406;2023-05-02T04:39:46;9.57;;;7.50;;
76348;SDS011;65172;46.764;15.406;2023-05-02T04:42:11;11.73;;;8.15;;
76348;SDS011;65172;46.764;15.406;2023-05-02T04:44:37;12.98;;;8.70;;
76348;SDS011;65172;46.764;15.406;2023-05-02T04:47:02;8.57;;;7.68;;
76348;SDS011;65172;46.764;15.406;2023-05-02T04:49:29;13.25;;;9.98;;
76348;SDS011;65172;46.764;15.406;2023-05-02T04:51:55;15.32;;;11.05;;
76348;SDS011;65172;46.764;15.406;2023-05-02T04:54:21;11.48;;;8.27;;
76348;SDS011;65172;46.764;15.406;2023-05-02T04:56:46;12.77;;;9.27;;
76348;SDS011;65172;46.764;15.406;2023-05-02T04:59:12;13.15;;;9.45;;
76348;SDS011;65172;46.764;15.406;2023-05-02T05:01:37;12.65;;;9.65;;
76348;SDS011;65172;46.764;15.406;2023-05-02T05:04:03;13.43;;;9.15;;
76348;SDS011;65172;46.764;15.406;2023-05-02T05:06:28;13.68;;;8.93;;
76348;SDS011;65172;46.764;15.406;2023-05-02T05:08:55;11.25;;;8.40;;
76348;SDS011;65172;46.764;15.406;2023-05-02T05:11:21;13.82;;;9.20;;
76348;SDS011;65172;46.764;15.406;2023-05-02T05:13:47;10.52;;;8.20;;
76348;SDS011;65172;46.764;15.406;2023-05-02T05:16:13;10.80;;;8.48;;
76348;SDS011;65172;46.764;15.406;2023-05-02T05:18:38;12.50;;;8.07;;
76348;SDS011;65172;46.764;15.406;2023-05-02T05:21:07;12.65;;;8.65;;
76348;SDS011;65172;46.764;15.406;2023-05-02T05:23:36;10.50;;;8.15;;
76348;SDS011;65172;46.764;15.406;2023-05-02T05:26:11;10.82;;;8.35;;
76348;SDS011;65172;46.764;15.406;2023-05-02T05:28:37;12.18;;;10.57;;
76348;SDS011;65172;46.764;15.406;2023-05-02T05:31:04;12.00;;;9.05;;
76348;SDS011;65172;46.764;15.406;2023-05-02T05:33:33;12.10;;;9.77;;
76348;SDS011;65172;46.764;15.406;2023-05-02T05:36:04;10.60;;;8.63;;
76348;SDS011;65172;46.764;15.406;2023-05-02T05:38:31;10.88;;;8.85;;
76348;SDS011;65172;46.764;15.406;2023-05-02T05:40:56;10.27;;;8.52;;
76348;SDS011;65172;46.764;15.406;2023-05-02T05:43:22;11.50;;;9.98;;
76348;SDS011;65172;46.764;15.406;2023-05-02T05:45:50;17.30;;;9.95;;
76348;SDS011;65172;46.764;15.406;2023-05-02T05:48:16;47.80;;;11.85;;
76348;SDS011;65172;46.764;15.406;2023-05-02T05:50:42;34.58;;;10.38;;
76348;SDS011;65172;46.764;15.406;2023-05-02T05:53:07;55.03;;;12.13;;
76348;SDS011;65172;46.764;15.406;2023-05-02T05:55:32;11.48;;;9.20;;
76348;SDS011;65172;46.764;15.406;2023-05-02T05:57:58;24.13;;;10.57;;
76348;SDS011;65172;46.764;15.406;2023-05-02T06:00:23;14.85;;;11.68;;
76348;SDS011;65172;46.764;15.406;2023-05-02T06:02:49;15.57;;;11.35;;
76348;SDS011;65172;46.764;15.406;2023-05-02T06:05:15;14.85;;;12.95;;
76348;SDS011;65172;46.764;15.406;2023-05-02T06:07:40;19.48;;;12.38;;
76348;SDS011;65172;46.764;15.406;2023-05-02T06:10:06;42.33;;;14.57;;
76348;SDS011;65172;46.764;15.406;2023-05-02T06:12:33;18.38;;;11.32;;
76348;SDS011;65172;46.764;15.406;2023-05-02T06:14:58;37.22;;;11.05;;
76348;SDS011;65172;46.764;15.406;2023-05-02T06:17:24;64.45;;;11.88;;
76348;SDS011;65172;46.764;15.406;2023-05-02T06:19:50;66.45;;;12.77;;
76348;SDS011;65172;46.764;15.406;2023-05-02T06:22:16;245.35;;;19.67;;
76348;SDS011;65172;46.764;15.406;2023-05-02T06:24:41;56.53;;;13.20;;
76348;SDS011;65172;46.764;15.406;2023-05-02T06:27:07;167.23;;;16.65;;
76348;SDS011;65172;46.764;15.406;2023-05-02T06:29:32;229.43;;;20.45;;
76348;SDS011;65172;46.764;15.406;2023-05-02T06:31:58;242.77;;;19.90;;
76348;SDS011;65172;46.764;15.406;2023-05-02T06:34:24;11.80;;;9.27;;
76348;SDS011;65172;46.764;15.406;2023-05-02T06:36:53;20.52;;;13.82;;
76348;SDS011;65172;46.764;15.406;2023-05-02T06:39:20;13.88;;;11.15;;
76348;SDS011;65172;46.764;15.406;2023-05-02T06:41:45;14.90;;;12.23;;
76348;SDS011;65172;46.764;15.406;2023-05-02T06:44:12;15.95;;;10.73;;
76348;SDS011;65172;46.764;15.406;2023-05-02T06:46:38;13.88;;;9.25;;
76348;SDS011;65172;46.764;15.406;2023-05-02T06:49:03;13.40;;;10.23;;
76348;SDS011;65172;46.764;15.406;2023-05-02T06:51:29;15.23;;;11.38;;
76348;SDS011;65172;46.764;15.406;2023-05-02T06:53:55;18.92;;;12.32;;
76348;SDS011;65172;46.764;15.406;2023-05-02T06:56:21;20.17;;;13.65;;
76348;SDS011;65172;46.764;15.406;2023-05-02T06:58:49;13.77;;;11.80;;
76348;SDS011;65172;46.764;15.406;2023-05-02T07:01:15;15.88;;;12.65;;
76348;SDS011;65172;46.764;15.406;2023-05-02T07:03:40;18.30;;;13.40;;
76348;SDS011;65172;46.764;15.406;2023-05-02T07:06:06;15.05;;;11.95;;
76348;SDS011;65172;46.764;15.406;2023-05-02T07:08:31;11.45;;;9.38;;
76348;SDS011;65172;46.764;15.406;2023-05-02T07:10:57;10.75;;;8.73;;
76348;SDS011;65172;46.764;15.406;2023-05-02T07:13:22;11.70;;;9.15;;
76348;SDS011;65172;46.764;15.406;2023-05-02T07:15:48;12.40;;;9.88;;
76348;SDS011;65172;46.764;15.406;2023-05-02T07:18:13;11.43;;;8.63;;
76348;SDS011;65172;46.764;15.406;2023-05-02T07:20:39;12.77;;;9.13;;
76348;SDS011;65172;46.764;15.406;2023-05-02T07:23:06;12.40;;;9.93;;
76348;SDS011;65172;46.764;15.406;2023-05-02T07:25:33;14.15;;;8.95;;
76348;SDS011;65172;46.764;15.406;2023-05-02T07:27:59;11.68;;;9.13;;
76348;SDS011;65172;46.764;15.406;2023-05-02T07:30:24;10.73;;;8.10;;
76348;SDS011;65172;46.764;15.406;2023-05-02T07:32:50;9.77;;;7.90;;
76348;SDS011;65172;46.764;15.406;2023-05-02T07:35:15;11.10;;;8.35;;
76348;SDS011;65172;46.764;15.406;2023-05-02T07:37:41;10.60;;;8.52;;
76348;SDS011;65172;46.764;15.406;2023-05-02T07:40:07;11.00;;;7.95;;
76348;SDS011;65172;46.764;15.406;2023-05-02T07:42:33;13.63;;;9.35;;
76348;SDS011;65172;46.764;15.406;2023-05-02T07:45:00;14.02;;;9.35;;
76348;SDS011;65172;46.764;15.406;2023-05-02T07:47:26;15.13;;;9.93;;
76348;SDS011;65172;46.764;15.406;2023-05-02T07:49:52;11.40;;;8.07;;
76348;SDS011;65172;46.764;15.406;2023-05-02T07:52:19;11.32;;;8.90;;
76348;SDS011;65172;46.764;15.406;2023-05-02T07:54:46;9.18;;;7.22;;
76348;SDS011;65172;46.764;15.406;2023-05-02T07:57:12;11.50;;;8.30;;
76348;SDS011;65172;46.764;15.406;2023-05-02T07:59:38;10.43;;;7.70;;
76348;SDS011;65172;46.764;15.406;2023-05-02T08:02:03;9.93;;;7.65;;
76348;SDS011;65172;46.764;15.406;2023-05-02T08:04:29;10.63;;;8.13;;
76348;SDS011;65172;46.764;15.406;2023-05-02T08:06:54;13.40;;;10.15;;
76348;SDS011;65172;46.764;15.406;2023-05-02T08:09:20;12.07;;;8.48;;
76348;SDS011;65172;46.764;15.406;2023-05-02T08:11:46;11.95;;;8.02;;
76348;SDS011;65172;46.764;15.406;2023-05-02T08:14:11;9.45;;;7.95;;
76348;SDS011;65172;46.764;15.406;2023-05-02T08:16:37;10.07;;;7.50;;
76348;SDS011;65172;46.764;15.406;2023-05-02T08:19:03;11.95;;;8.15;;
76348;SDS011;65172;46.764;15.406;2023-05-02T08:21:28;11.45;;;7.25;;
76348;SDS011;65172;46.764;15.406;2023-05-02T08:23:56;14.15;;;9.45;;
76348;SDS011;65172;46.764;15.406;2023-05-02T08:26:22;11.95;;;8.80;;
76348;SDS011;65172;46.764;15.406;2023-05-02T08:28:49;13.82;;;10.52;;
76348;SDS011;65172;46.764;15.406;2023-05-02T08:31:15;14.40;;;10.07;;
76348;SDS011;65172;46.764;15.406;2023-05-02T08:33:41;12.43;;;9.60;;
76348;SDS011;65172;46.764;15.406;2023-05-02T08:36:10;13.20;;;10.20;;
76348;SDS011;65172;46.764;15.406;2023-05-02T08:38:37;127.82;;;14.30;;
76348;SDS011;65172;46.764;15.406;2023-05-02T08:41:02;122.53;;;15.65;;
76348;SDS011;65172;46.764;15.406;2023-05-02T08:43:36;11.13;;;9.07;;
76348;SDS011;65172;46.764;15.406;2023-05-02T08:46:04;179.52;;;16.88;;
76348;SDS011;65172;46.764;15.406;2023-05-02T08:48:31;12.38;;;9.20;;
76348;SDS011;65172;46.764;15.406;2023-05-02T08:50:57;14.18;;;9.85;;
76348;SDS011;65172;46.764;15.406;2023-05-02T08:53:23;25.20;;;10.80;;
76348;SDS011;65172;46.764;15.406;2023-05-02T08:55:49;23.75;;;11.80;;
76348;SDS011;65172;46.764;15.406;2023-05-02T08:58:15;16.42;;;10.38;;
76348;SDS011;65172;46.764;15.406;2023-05-02T09:00:41;14.85;;;10.60;;
76348;SDS011;65172;46.764;15.406;2023-05-02T09:08:39;46.42;;;12.70;;
76348;SDS011;65172;46.764;15.406;2023-05-02T09:11:06;13.70;;;9.82;;
76348;SDS011;65172;46.764;15.406;2023-05-02T09:13:34;11.82;;;9.13;;
76348;SDS011;65172;46.764;15.406;2023-05-02T09:16:01;15.27;;;8.95;;
76348;SDS011;65172;46.764;15.406;2023-05-02T09:18:29;13.63;;;9.07;;
76348;SDS011;65172;46.764;15.406;2023-05-02T09:20:57;11.75;;;9.65;;
76348;SDS011;65172;46.764;15.406;2023-05-02T09:23:39;11.48;;;8.65;;
76348;SDS011;65172;46.764;15.406;2023-05-02T09:28:47;13.07;;;9.00;;
76348;SDS011;65172;46.764;15.406;2023-05-02T09:31:15;11.93;;;9.10;;
76348;SDS011;65172;46.764;15.406;2023-05-02T09:33:46;10.82;;;8.38;;
76348;SDS011;65172;46.764;15.406;2023-05-02T09:36:12;12.05;;;9.57;;
76348;SDS011;65172;46.764;15.406;2023-05-02T09:38:40;10.73;;;7.57;;
76348;SDS011;65172;46.764;15.406;2023-05-02T09:41:06;11.43;;;8.68;;
76348;SDS011;65172;46.764;15.406;2023-05-02T09:43:32;10.70;;;6.88;;
76348;SDS011;65172;46.764;15.406;2023-05-02T09:46:01;12.13;;;9.43;;
76348;SDS011;65172;46.764;15.406;2023-05-02T09:50:57;12.38;;;7.55;;
76348;SDS011;65172;46.764;15.406;2023-05-02T09:53:24;9.07;;;7.32;;
76348;SDS011;65172;46.764;15.406;2023-05-02T09:56:01;13.27;;;7.88;;
76348;SDS011;65172;46.764;15.406;2023-05-02T09:58:27;10.13;;;7.47;;
76348;SDS011;65172;46.764;15.406;2023-05-02T10:00:54;8.85;;;6.40;;
76348;SDS011;65172;46.764;15.406;2023-05-02T10:03:20;12.20;;;7.90;;
76348;SDS011;65172;46.764;15.406;2023-05-02T10:05:48;10.07;;;6.85;;
76348;SDS011;65172;46.764;15.406;2023-05-02T10:08:15;8.32;;;7.07;;
76348;SDS011;65172;46.764;15.406;2023-05-02T10:10:45;7.28;;;6.07;;
76348;SDS011;65172;46.764;15.406;2023-05-02T10:15:41;8.82;;;4.90;;
76348;SDS011;65172;46.764;15.406;2023-05-02T10:18:10;6.95;;;5.18;;
76348;SDS011;65172;46.764;15.406;2023-05-02T10:20:42;7.00;;;5.07;;
76348;SDS011;65172;46.764;15.406;2023-05-02T10:23:13;5.95;;;5.15;;
76348;SDS011;65172;46.764;15.406;2023-05-02T10:25:40;6.10;;;5.10;;
76348;SDS011;65172;46.764;15.406;2023-05-02T10:28:05;8.55;;;5.57;;
76348;SDS011;65172;46.764;15.406;2023-05-02T10:30:32;6.40;;;4.97;;
76348;SDS011;65172;46.764;15.406;2023-05-02T10:32:58;7.85;;;4.60;;
76348;SDS011;65172;46.764;15.406;2023-05-02T10:35:24;6.88;;;4.60;;
76348;SDS011;65172;46.764;15.406;2023-05-02T10:37:50;6.05;;;4.65;;
76348;SDS011;65172;46.764;15.406;2023-05-02T10:40:16;6.47;;;4.75;;
76348;SDS011;65172;46.764;15.406;2023-05-02T10:42:43;10.45;;;4.40;;
76348;SDS011;65172;46.764;15.406;2023-05-02T10:48:14;4.63;;;3.60;;
76348;SDS011;65172;46.764;15.406;2023-05-02T10:50:41;3.97;;;3.40;;
76348;SDS011;65172;46.764;15.406;2023-05-02T10:58:54;3.45;;;2.92;;
76348;SDS011;65172;46.764;15.406;2023-05-02T11:01:55;4.95;;;3.58;;
76348;SDS011;65172;46.764;15.406;2023-05-02T11:04:21;5.50;;;3.55;;
76348;SDS011;65172;46.764;15.406;2023-05-02T11:11:53;3.35;;;2.72;;
76348;SDS011;65172;46.764;15.406;2023-05-02T11:19:26;6.93;;;4.10;;
76348;SDS011;65172;46.764;15.406;2023-05-02T11:21:53;9.50;;;3.92;;
76348;SDS011;65172;46.764;15.406;2023-05-02T11:24:52;5.75;;;3.55;;
76348;SDS011;65172;46.764;15.406;2023-05-02T11:30:08;5.40;;;3.40;;
76348;SDS011;65172;46.764;15.406;2023-05-02T11:35:22;5.22;;;3.88;;
76348;SDS011;65172;46.764;15.406;2023-05-02T11:37:54;9.48;;;3.88;;
76348;SDS011;65172;46.764;15.406;2023-05-02T11:40:23;5.75;;;3.40;;
76348;SDS011;65172;46.764;15.406;2023-05-02T11:42:50;5.55;;;4.00;;
76348;SDS011;65172;46.764;15.406;2023-05-02T11:45:15;5.28;;;4.25;;
76348;SDS011;65172;46.764;15.406;2023-05-02T11:47:41;4.25;;;3.38;;
76348;SDS011;65172;46.764;15.406;2023-05-02T11:50:07;6.30;;;3.60;;
76348;SDS011;65172;46.764;15.406;2023-05-02T11:52:40;7.65;;;3.80;;
76348;SDS011;65172;46.764;15.406;2023-05-02T11:55:07;5.32;;;3.88;;
76348;SDS011;65172;46.764;15.406;2023-05-02T11:57:36;6.03;;;3.88;;
76348;SDS011;65172;46.764;15.406;2023-05-02T12:00:02;6.93;;;3.92;;
76348;SDS011;65172;46.764;15.406;2023-05-02T12:02:35;7.28;;;3.65;;
76348;SDS011;65172;46.764;15.406;2023-05-02T12:05:04;6.07;;;4.63;;
76348;SDS011;65172;46.764;15.406;2023-05-02T12:07:34;29.52;;;5.15;;
76348;SDS011;65172;46.764;15.406;2023-05-02T12:10:04;6.40;;;4.25;;
76348;SDS011;65172;46.764;15.406;2023-05-02T12:12:30;10.13;;;4.35;;
76348;SDS011;65172;46.764;15.406;2023-05-02T12:14:56;10.25;;;4.43;;
76348;SDS011;65172;46.764;15.406;2023-05-02T12:17:22;4.20;;;3.47;;
76348;SDS011;65172;46.764;15.406;2023-05-02T12:19:48;21.85;;;4.57;;
76348;SDS011;65172;46.764;15.406;2023-05-02T12:22:14;9.13;;;4.10;;
76348;SDS011;65172;46.764;15.406;2023-05-02T12:24:40;6.45;;;4.25;;
76348;SDS011;65172;46.764;15.406;2023-05-02T12:27:08;4.35;;;3.63;;
76348;SDS011;65172;46.764;15.406;2023-05-02T12:29:37;5.35;;;4.07;;
76348;SDS011;65172;46.764;15.406;2023-05-02T12:32:06;5.10;;;4.28;;
76348;SDS011;65172;46.764;15.406;2023-05-02T12:34:35;4.45;;;3.60;;
76348;SDS011;65172;46.764;15.406;2023-05-02T12:37:02;39.17;;;4.97;;
76348;SDS011;65172;46.764;15.406;2023-05-02T12:39:34;164.77;;;9.48;;
76348;SDS011;65172;46.764;15.406;2023-05-02T12:42:25;171.88;;;9.68;;
76348;SDS011;65172;46.764;15.406;2023-05-02T12:44:50;65.85;;;7.25;;
76348;SDS011;65172;46.764;15.406;2023-05-02T12:47:16;6.15;;;4.20;;
76348;SDS011;65172;46.764;15.406;2023-05-02T12:49:49;7.72;;;5.10;;
76348;SDS011;65172;46.764;15.406;2023-05-02T12:52:16;9.30;;;5.68;;
76348;SDS011;65172;46.764;15.406;2023-05-02T12:54:44;8.85;;;4.38;;
76348;SDS011;65172;46.764;15.406;2023-05-02T12:57:20;7.10;;;5.28;;
76348;SDS011;65172;46.764;15.406;2023-05-02T12:59:50;7.38;;;5.10;;
76348;SDS011;65172;46.764;15.406;2023-05-02T13:02:17;4.97;;;3.70;;
76348;SDS011;65172;46.764;15.406;2023-05-02T13:04:43;10.73;;;5.53;;
76348;SDS011;65172;46.764;15.406;2023-05-02T13:07:08;8.48;;;4.95;;
76348;SDS011;65172;46.764;15.406;2023-05-02T13:09:35;6.22;;;4.40;;
76348;SDS011;65172;46.764;15.406;2023-05-02T13:12:01;5.55;;;4.30;;
76348;SDS011;65172;46.764;15.406;2023-05-02T13:14:30;6.35;;;4.22;;
76348;SDS011;65172;46.764;15.406;2023-05-02T13:16:55;6.35;;;5.22;;
76348;SDS011;65172;46.764;15.406;2023-05-02T13:19:21;6.55;;;4.80;;
76348;SDS011;65172;46.764;15.406;2023-05-02T13:21:47;7.68;;;5.00;;
76348;SDS011;65172;46.764;15.406;2023-05-02T13:24:13;16.80;;;5.35;;
76348;SDS011;65172;46.764;15.406;2023-05-02T13:26:39;20.77;;;4.85;;
76348;SDS011;65172;46.764;15.406;2023-05-02T13:29:05;9.25;;;4.85;;
76348;SDS011;65172;46.764;15.406;2023-05-02T13:31:31;6.75;;;4.72;;
76348;SDS011;65172;46.764;15.406;2023-05-02T13:33:56;10.20;;;4.82;;
76348;SDS011;65172;46.764;15.406;2023-05-02T13:36:22;52.38;;;6.90;;
76348;SDS011;65172;46.764;15.406;2023-05-02T13:38:48;13.18;;;5.07;;
76348;SDS011;65172;46.764;15.406;2023-05-02T13:41:14;7.05;;;4.60;;
76348;SDS011;65172;46.764;15.406;2023-05-02T13:43:39;11.63;;;4.15;;
76348;SDS011;65172;46.764;15.406;2023-05-02T13:46:05;5.70;;;3.75;;
76348;SDS011;65172;46.764;15.406;2023-05-02T13:48:31;7.18;;;3.67;;
76348;SDS011;65172;46.764;15.406;2023-05-02T13:50:56;4.45;;;2.78;;
76348;SDS011;65172;46.764;15.406;2023-05-02T13:53:21;4.20;;;3.10;;
76348;SDS011;65172;46.764;15.406;2023-05-02T13:55:47;6.20;;;3.65;;
76348;SDS011;65172;46.764;15.406;2023-05-02T13:58:12;6.25;;;2.90;;
76348;SDS011;65172;46.764;15.406;2023-05-02T14:00:38;8.32;;;3.33;;
76348;SDS011;65172;46.764;15.406;2023-05-02T14:03:03;11.13;;;3.15;;
76348;SDS011;65172;46.764;15.406;2023-05-02T14:05:29;6.38;;;3.10;;
76348;SDS011;65172;46.764;15.406;2023-05-02T14:07:55;5.47;;;3.08;;
76348;SDS011;65172;46.764;15.406;2023-05-02T14:10:20;7.88;;;3.22;;
76348;SDS011;65172;46.764;15.406;2023-05-02T14:12:46;4.20;;;2.80;;
76348;SDS011;65172;46.764;15.406;2023-05-02T14:15:12;4.45;;;2.83;;
76348;SDS011;65172;46.764;15.406;2023-05-02T14:17:37;11.50;;;3.03;;
76348;SDS011;65172;46.764;15.406;2023-05-02T14:20:03;7.18;;;3.40;;
76348;SDS011;65172;46.764;15.406;2023-05-02T14:22:29;5.28;;;2.75;;
76348;SDS011;65172;46.764;15.406;2023-05-02T14:24:55;6.32;;;3.33;;
76348;SDS011;65172;46.764;15.406;2023-05-02T14:27:21;7.25;;;3.05;;
76348;SDS011;65172;46.764;15.406;2023-05-02T14:29:47;6.05;;;2.53;;
76348;SDS011;65172;46.764;15.406;2023-05-02T14:32:12;4.45;;;2.75;;
76348;SDS011;65172;46.764;15.406;2023-05-02T14:34:38;4.72;;;2.72;;
76348;SDS011;65172;46.764;15.406;2023-05-02T14:37:04;8.45;;;2.80;;
76348;SDS011;65172;46.764;15.406;2023-05-02T14:39:30;4.95;;;2.28;;
76348;SDS011;65172;46.764;15.406;2023-05-02T14:41:56;7.80;;;3.20;;
76348;SDS011;65172;46.764;15.406;2023-05-02T14:44:21;6.65;;;2.80;;
76348;SDS011;65172;46.764;15.406;2023-05-02T14:46:47;7.63;;;3.33;;
76348;SDS011;65172;46.764;15.406;2023-05-02T14:49:12;6.40;;;3.17;;
76348;SDS011;65172;46.764;15.406;2023-05-02T14:51:38;9.40;;;2.95;;
76348;SDS011;65172;46.764;15.406;2023-05-02T14:54:04;10.50;;;2.55;;
76348;SDS011;65172;46.764;15.406;2023-05-02T14:56:31;4.43;;;2.75;;
76348;SDS011;65172;46.764;15.406;2023-05-02T14:58:59;4.05;;;2.58;;
76348;SDS011;65172;46.764;15.406;2023-05-02T15:01:25;7.47;;;2.55;;
76348;SDS011;65172;46.764;15.406;2023-05-02T15:03:50;3.50;;;2.20;;
76348;SDS011;65172;46.764;15.406;2023-05-02T15:06:16;4.10;;;2.40;;
76348;SDS011;65172;46.764;15.406;2023-05-02T15:08:42;3.78;;;2.40;;
76348;SDS011;65172;46.764;15.406;2023-05-02T15:11:09;4.45;;;2.35;;
76348;SDS011;65172;46.764;15.406;2023-05-02T15:13:35;3.80;;;2.40;;
76348;SDS011;65172;46.764;15.406;2023-05-02T15:16:01;5.28;;;2.30;;
76348;SDS011;65172;46.764;15.406;2023-05-02T15:18:27;3.22;;;1.95;;
76348;SDS011;65172;46.764;15.406;2023-05-02T15:20:53;4.57;;;2.25;;
76348;SDS011;65172;46.764;15.406;2023-05-02T15:23:18;4.38;;;2.47;;
76348;SDS011;65172;46.764;15.406;2023-05-02T15:25:44;7.88;;;2.40;;
76348;SDS011;65172;46.764;15.406;2023-05-02T15:28:09;3.05;;;2.10;;
76348;SDS011;65172;46.764;15.406;2023-05-02T15:30:35;2.92;;;1.63;;
76348;SDS011;65172;46.764;15.406;2023-05-02T15:33:01;2.60;;;1.80;;